Time;durP1;ratioP1;P1;durP2;ratioP2;P2;SDS_P1;SDS_P2;PMS_P1;PMS_P2;Temp;Humidity;BMP_temperature;BMP_pressure;BME280_temperature;BME280_humidity;BME280_pressure;Samples;Min_cycle;Max_cycle;Signal;HPM_P1;HPM_P2
2021/12/06 00:00:54;;;;;;;39.13;25.27;;;2.90;99.90;;;;;;5029229;28;20084;-36
2021/12/06 00:03:26;;;;;;;39.90;26.05;;;2.90;99.90;;;;;;5050245;28;20049;-36
2021/12/06 00:05:53;;;;;;;43.55;28.58;;;2.90;99.90;;;;;;5051770;28;20073;-36
2021/12/06 00:08:20;;;;;;;50.55;30.38;;;2.90;99.90;;;;;;5026352;28;20443;-36
2021/12/06 00:10:50;;;;;;;46.38;28.80;;;2.90;99.90;;;;;;5042881;28;20092;-37
2021/12/06 00:13:20;;;;;;;49.55;30.15;;;2.80;99.90;;;;;;5040509;28;20059;-36
2021/12/06 00:15:49;;;;;;;47.85;30.73;;;2.80;99.90;;;;;;5036851;28;20061;-36
2021/12/06 00:18:16;;;;;;;49.22;29.15;;;2.80;99.90;;;;;;5052700;28;20053;-36
2021/12/06 00:20:43;;;;;;;48.08;27.80;;;2.80;99.90;;;;;;5038374;28;20083;-37
2021/12/06 00:23:10;;;;;;;49.15;28.73;;;2.80;99.90;;;;;;5051758;28;20503;-36
2021/12/06 00:25:37;;;;;;;52.90;28.83;;;2.80;99.90;;;;;;5033253;28;20084;-38
2021/12/06 00:28:06;;;;;;;49.05;28.33;;;2.80;99.90;;;;;;5057628;28;20506;-38
2021/12/06 00:30:33;;;;;;;49.50;28.60;;;2.80;99.90;;;;;;5036721;28;20123;-36
2021/12/06 00:33:00;;;;;;;49.08;28.27;;;2.70;99.90;;;;;;5042637;28;20087;-37
2021/12/06 00:35:29;;;;;;;52.03;28.40;;;2.80;99.90;;;;;;5036538;28;20437;-37
2021/12/06 00:38:00;;;;;;;51.65;29.30;;;2.80;99.90;;;;;;5033197;28;20106;-37
2021/12/06 00:40:29;;;;;;;52.78;29.38;;;2.70;99.90;;;;;;5035819;28;20049;-37
2021/12/06 00:42:56;;;;;;;51.97;29.60;;;2.70;99.90;;;;;;5035876;28;20053;-38
2021/12/06 00:45:24;;;;;;;50.63;29.00;;;2.80;99.90;;;;;;5037215;28;20084;-37
2021/12/06 00:47:51;;;;;;;53.25;28.55;;;2.80;99.90;;;;;;5035324;28;20045;-37
2021/12/06 00:50:19;;;;;;;55.10;31.20;;;2.80;99.90;;;;;;5043015;28;20167;-37
2021/12/06 00:52:46;;;;;;;50.72;28.67;;;2.80;99.90;;;;;;5036707;28;20135;-36
2021/12/06 00:55:13;;;;;;;50.33;29.45;;;2.80;99.90;;;;;;5042184;28;20040;-37
2021/12/06 00:57:40;;;;;;;55.33;30.38;;;2.80;99.90;;;;;;5041015;28;20152;-37
2021/12/06 01:00:09;;;;;;;53.55;29.55;;;2.80;99.90;;;;;;5053152;28;20044;-36
2021/12/06 01:02:38;;;;;;;51.75;28.92;;;2.80;99.90;;;;;;5061682;28;20146;-37
2021/12/06 01:05:06;;;;;;;56.70;32.15;;;2.80;99.90;;;;;;5060798;28;20045;-37
2021/12/06 01:07:33;;;;;;;56.50;32.08;;;2.80;99.90;;;;;;5051430;28;20057;-42
2021/12/06 01:10:00;;;;;;;57.45;32.08;;;2.80;99.90;;;;;;5052223;28;20080;-36
2021/12/06 01:12:27;;;;;;;60.08;32.20;;;2.80;99.90;;;;;;5051580;28;20053;-36
2021/12/06 01:14:54;;;;;;;59.58;32.40;;;2.80;99.90;;;;;;5051174;28;20051;-37
2021/12/06 01:17:21;;;;;;;59.65;32.17;;;2.80;99.90;;;;;;5051376;28;20049;-39
2021/12/06 01:19:49;;;;;;;57.58;31.77;;;2.70;99.90;;;;;;5047626;28;20054;-37
2021/12/06 01:22:24;;;;;;;56.95;32.25;;;2.70;99.90;;;;;;5051502;28;20059;-37
2021/12/06 01:24:55;;;;;;;56.83;30.95;;;2.70;99.90;;;;;;5013641;28;20124;-40
2021/12/06 01:27:52;;;;;;;59.92;31.83;;;2.70;99.90;;;;;;5026976;28;20045;-36
2021/12/06 01:30:46;;;;;;;55.83;30.95;;;2.70;99.90;;;;;;5028131;28;20091;-37
2021/12/06 01:41:18;;;;;;;51.78;28.67;;;2.70;99.90;;;;;;5046372;28;20485;-37
2021/12/06 01:44:08;;;;;;;62.45;31.95;;;2.70;99.90;;;;;;5037194;28;20107;-36
2021/12/06 01:46:36;;;;;;;62.05;32.83;;;2.70;99.90;;;;;;5047768;28;20045;-37
2021/12/06 01:49:03;;;;;;;62.33;33.30;;;2.70;99.90;;;;;;5033870;28;20110;-37
2021/12/06 01:51:31;;;;;;;65.28;34.58;;;2.70;99.90;;;;;;5033200;28;20085;-38
2021/12/06 01:53:59;;;;;;;62.72;34.15;;;2.70;99.90;;;;;;5051129;28;20542;-36
2021/12/06 01:56:26;;;;;;;56.35;31.65;;;2.70;99.90;;;;;;5033601;28;20497;-37
2021/12/06 01:58:53;;;;;;;63.30;34.08;;;2.70;99.90;;;;;;5034063;28;20045;-36
2021/12/06 02:01:20;;;;;;;65.13;33.50;;;2.70;99.90;;;;;;5052305;28;20507;-37
2021/12/06 02:03:47;;;;;;;62.33;32.13;;;2.70;99.90;;;;;;5026101;28;20049;-36
2021/12/06 02:06:14;;;;;;;64.13;32.83;;;2.70;99.90;;;;;;5026737;28;20068;-38
2021/12/06 02:08:42;;;;;;;61.75;32.45;;;2.70;99.90;;;;;;5026863;28;20153;-37
2021/12/06 02:11:10;;;;;;;64.43;33.53;;;2.80;99.90;;;;;;5028556;28;20490;-38
2021/12/06 02:13:44;;;;;;;57.85;30.48;;;2.80;99.90;;;;;;5012544;28;20048;-36
2021/12/06 02:16:11;;;;;;;63.75;33.13;;;2.80;99.90;;;;;;5006114;28;20057;-37
2021/12/06 02:19:02;;;;;;;62.28;32.42;;;2.80;99.90;;;;;;5003507;28;20514;-38
2021/12/06 02:21:33;;;;;;;59.28;32.63;;;2.80;99.90;;;;;;5012905;28;20049;-37
2021/12/06 02:24:02;;;;;;;56.17;30.35;;;2.90;99.90;;;;;;5009256;28;20061;-37
2021/12/06 02:26:29;;;;;;;61.88;31.15;;;2.90;99.90;;;;;;5007984;28;20485;-38
2021/12/06 02:28:56;;;;;;;58.33;31.55;;;2.90;99.90;;;;;;5025588;28;20110;-37
2021/12/06 02:31:25;;;;;;;58.00;31.42;;;2.90;99.90;;;;;;5031530;28;20049;-37
2021/12/06 02:33:52;;;;;;;56.28;31.58;;;2.90;99.90;;;;;;5030504;28;20132;-36
2021/12/06 02:36:20;;;;;;;58.90;31.42;;;2.90;99.90;;;;;;5028826;28;20084;-36
2021/12/06 02:38:49;;;;;;;62.80;31.75;;;2.90;99.90;;;;;;5011408;28;20049;-37
2021/12/06 02:41:18;;;;;;;62.08;32.03;;;2.90;99.90;;;;;;5007787;28;20541;-37
2021/12/06 02:43:45;;;;;;;61.88;32.22;;;2.90;99.90;;;;;;5013038;28;20052;-37
2021/12/06 02:46:12;;;;;;;64.20;32.80;;;2.90;99.90;;;;;;5025490;28;20053;-38
2021/12/06 02:48:39;;;;;;;63.53;32.63;;;2.90;99.90;;;;;;5027622;28;20049;-37
2021/12/06 02:51:07;;;;;;;57.95;32.45;;;2.90;99.90;;;;;;5012212;28;20424;-37
2021/12/06 02:53:35;;;;;;;60.70;33.33;;;2.90;99.90;;;;;;5025998;28;20053;-37
2021/12/06 02:56:16;;;;;;;64.25;32.05;;;2.90;99.90;;;;;;5030404;28;20508;-37
2021/12/06 02:58:56;;;;;;;56.23;29.67;;;2.90;99.90;;;;;;5024327;28;20060;-36
2021/12/06 03:01:27;;;;;;;65.18;33.40;;;2.90;99.90;;;;;;5028037;28;20296;-37
2021/12/06 03:03:55;;;;;;;66.07;34.78;;;2.90;99.90;;;;;;5028383;28;20107;-37
2021/12/06 03:06:22;;;;;;;62.83;32.75;;;2.90;99.90;;;;;;5017123;28;20057;-37
2021/12/06 03:08:52;;;;;;;61.63;31.83;;;2.90;99.90;;;;;;5051248;28;20037;-36
2021/12/06 03:11:22;;;;;;;61.58;32.78;;;2.90;99.90;;;;;;5024287;28;20123;-36
2021/12/06 03:13:50;;;;;;;67.05;32.17;;;2.90;99.90;;;;;;5045809;28;20514;-37
2021/12/06 03:16:17;;;;;;;63.40;33.58;;;2.90;99.90;;;;;;5024564;28;20175;-36
2021/12/06 03:18:44;;;;;;;69.85;33.35;;;2.90;99.90;;;;;;5023077;28;20075;-36
2021/12/06 03:21:11;;;;;;;73.05;34.63;;;2.90;99.90;;;;;;5033207;28;20128;-38
2021/12/06 03:23:38;;;;;;;67.85;33.90;;;2.90;99.90;;;;;;5027440;28;20126;-37
2021/12/06 03:26:05;;;;;;;68.28;33.75;;;2.90;99.90;;;;;;5047318;28;20515;-37
2021/12/06 03:28:37;;;;;;;71.47;34.53;;;2.90;99.90;;;;;;5024096;28;20089;-38
2021/12/06 03:31:04;;;;;;;75.38;34.58;;;2.90;99.90;;;;;;5040872;28;20568;-36
2021/12/06 03:33:32;;;;;;;71.47;34.17;;;2.90;99.90;;;;;;5039770;28;20085;-37
2021/12/06 03:35:59;;;;;;;70.75;35.80;;;2.90;99.90;;;;;;5032676;28;20131;-36
2021/12/06 03:38:26;;;;;;;74.78;35.85;;;2.90;99.90;;;;;;5023577;28;20133;-37
2021/12/06 03:40:53;;;;;;;79.90;35.47;;;2.90;99.90;;;;;;5016859;28;21580;-36
2021/12/06 03:43:20;;;;;;;75.80;34.45;;;2.90;99.90;;;;;;5035530;28;20505;-37
2021/12/06 03:45:48;;;;;;;83.13;36.83;;;2.90;99.90;;;;;;5036328;28;20049;-37
2021/12/06 03:48:15;;;;;;;73.30;33.58;;;2.90;99.90;;;;;;5050416;28;20140;-37
2021/12/06 03:50:42;;;;;;;75.63;35.08;;;2.90;99.90;;;;;;5053788;28;20048;-37
2021/12/06 03:53:09;;;;;;;81.05;36.92;;;2.90;99.90;;;;;;5028179;28;20081;-36
2021/12/06 03:55:36;;;;;;;76.68;36.92;;;2.90;99.90;;;;;;5029174;28;20128;-36
2021/12/06 03:58:03;;;;;;;75.95;36.40;;;2.90;99.90;;;;;;5031727;28;20085;-37
2021/12/06 04:00:30;;;;;;;78.32;35.88;;;2.90;99.90;;;;;;5053777;28;20049;-37
2021/12/06 04:02:59;;;;;;;82.70;37.90;;;2.90;99.90;;;;;;5054262;28;20489;-36
2021/12/06 04:05:26;;;;;;;76.43;36.47;;;2.90;99.90;;;;;;5052824;28;20484;-37
2021/12/06 04:07:53;;;;;;;81.38;38.28;;;2.90;99.90;;;;;;5026031;28;20128;-37
2021/12/06 04:10:20;;;;;;;76.85;35.15;;;2.90;99.90;;;;;;5020742;28;20091;-44
2021/12/06 04:12:47;;;;;;;81.80;35.88;;;2.90;99.90;;;;;;5035590;28;20048;-37
2021/12/06 04:15:14;;;;;;;79.32;35.80;;;2.90;99.90;;;;;;5036219;28;20132;-38
2021/12/06 04:17:41;;;;;;;80.00;36.58;;;2.90;99.90;;;;;;5035741;28;20099;-37
2021/12/06 04:20:11;;;;;;;75.57;37.58;;;2.90;99.90;;;;;;5060129;28;20124;-36
2021/12/06 04:22:38;;;;;;;79.50;36.17;;;2.90;99.90;;;;;;5031072;28;20600;-37
2021/12/06 04:25:09;;;;;;;80.40;35.95;;;2.90;99.90;;;;;;5052300;28;20128;-37
2021/12/06 04:27:36;;;;;;;76.55;35.95;;;2.90;99.90;;;;;;5054409;28;20045;-36
2021/12/06 04:30:03;;;;;;;81.80;35.63;;;2.90;99.90;;;;;;5033575;28;20077;-37
2021/12/06 04:32:30;;;;;;;75.90;35.72;;;2.90;99.90;;;;;;5053412;28;20592;-38
2021/12/06 04:34:57;;;;;;;73.30;33.65;;;2.90;99.90;;;;;;5058226;28;20107;-37
2021/12/06 04:37:26;;;;;;;77.75;33.78;;;2.90;99.90;;;;;;5054934;28;20063;-36
2021/12/06 04:39:53;;;;;;;70.93;33.70;;;2.90;99.90;;;;;;5055503;28;20071;-37
2021/12/06 04:42:21;;;;;;;75.05;36.15;;;2.90;99.90;;;;;;5032963;28;20509;-38
2021/12/06 04:44:48;;;;;;;79.50;34.72;;;2.90;99.90;;;;;;5035912;28;20049;-36
2021/12/06 04:47:15;;;;;;;76.30;34.33;;;2.80;99.90;;;;;;5035353;28;20084;-37
2021/12/06 04:49:42;;;;;;;80.60;35.58;;;2.80;99.90;;;;;;5035608;28;20548;-40
2021/12/06 04:52:12;;;;;;;81.93;35.55;;;2.80;99.90;;;;;;5033133;28;20049;-36
2021/12/06 04:54:43;;;;;;;89.43;37.67;;;2.90;99.90;;;;;;5052922;28;20045;-37
2021/12/06 04:57:12;;;;;;;86.85;37.50;;;2.90;99.90;;;;;;5052587;28;20530;-37
2021/12/06 04:59:40;;;;;;;90.70;39.13;;;2.80;99.90;;;;;;5046478;28;20057;-39
2021/12/06 05:02:09;;;;;;;81.53;37.55;;;2.80;99.90;;;;;;5044504;28;20482;-36
2021/12/06 05:04:38;;;;;;;84.70;37.15;;;2.80;99.90;;;;;;5051330;28;20141;-37
2021/12/06 05:07:07;;;;;;;81.40;36.05;;;2.90;99.90;;;;;;5044769;28;20115;-36
2021/12/06 05:09:36;;;;;;;80.65;36.28;;;2.90;99.90;;;;;;5029683;28;20053;-36
2021/12/06 05:12:05;;;;;;;74.28;34.30;;;2.80;99.90;;;;;;5045268;28;20127;-36
2021/12/06 05:14:32;;;;;;;79.18;34.13;;;2.80;99.90;;;;;;5050933;28;20053;-37
2021/12/06 05:16:59;;;;;;;72.85;34.15;;;2.90;99.90;;;;;;5026360;28;20082;-36
2021/12/06 05:19:26;;;;;;;72.88;33.67;;;2.90;99.90;;;;;;5026719;28;20543;-37
2021/12/06 05:21:53;;;;;;;73.88;33.63;;;2.90;99.90;;;;;;5028620;28;20136;-36
2021/12/06 05:24:20;;;;;;;77.65;33.13;;;2.90;99.90;;;;;;5037648;28;20141;-36
2021/12/06 05:26:47;;;;;;;72.07;33.22;;;2.90;99.90;;;;;;5029150;28;20100;-37
2021/12/06 05:29:17;;;;;;;70.28;33.10;;;2.90;99.90;;;;;;5065183;28;20059;-36
2021/12/06 05:31:45;;;;;;;75.95;33.35;;;2.80;99.90;;;;;;5063300;28;20044;-37
2021/12/06 05:34:16;;;;;;;77.30;33.22;;;2.90;99.90;;;;;;5039691;28;20061;-40
2021/12/06 05:36:43;;;;;;;71.20;34.50;;;2.90;99.90;;;;;;5033999;28;20111;-37
2021/12/06 05:39:10;;;;;;;77.53;33.67;;;2.90;99.90;;;;;;5029350;28;20041;-37
2021/12/06 05:41:37;;;;;;;79.13;34.17;;;2.90;99.90;;;;;;5051308;28;20043;-37
2021/12/06 05:44:05;;;;;;;76.28;32.92;;;2.90;99.90;;;;;;5033764;28;20045;-37
2021/12/06 05:46:33;;;;;;;84.35;36.03;;;2.90;99.90;;;;;;5039603;28;20049;-37
2021/12/06 05:49:00;;;;;;;84.10;36.17;;;2.90;99.90;;;;;;5052501;28;20118;-37
2021/12/06 05:51:27;;;;;;;84.85;35.83;;;2.90;99.90;;;;;;5031417;28;20061;-36
2021/12/06 05:53:54;;;;;;;82.43;35.60;;;2.90;99.90;;;;;;5031843;28;20085;-37
2021/12/06 05:56:21;;;;;;;82.75;36.97;;;2.90;99.90;;;;;;5028073;28;20510;-37
2021/12/06 05:58:48;;;;;;;95.75;37.53;;;2.90;99.90;;;;;;5028360;28;20057;-37
2021/12/06 06:01:15;;;;;;;90.00;37.45;;;2.90;99.90;;;;;;5031625;28;20442;-36
2021/12/06 06:03:44;;;;;;;86.13;36.63;;;2.90;99.90;;;;;;5032635;28;20092;-35
2021/12/06 06:06:11;;;;;;;89.90;35.95;;;2.90;99.90;;;;;;5048862;28;20519;-36
2021/12/06 06:08:39;;;;;;;92.75;37.60;;;2.90;99.90;;;;;;5025422;28;20081;-37
2021/12/06 06:11:06;;;;;;;90.80;36.45;;;2.90;99.90;;;;;;5002886;22;20048;-37
2021/12/06 06:13:33;;;;;;;88.10;37.35;;;2.90;99.90;;;;;;5042078;28;20048;-36
2021/12/06 06:16:02;;;;;;;88.15;36.10;;;2.90;99.90;;;;;;5032898;28;20152;-37
2021/12/06 06:18:29;;;;;;;92.15;37.20;;;2.90;99.90;;;;;;5051583;28;20937;-37
2021/12/06 06:20:57;;;;;;;94.97;37.15;;;2.90;99.90;;;;;;5051455;28;20084;-37
2021/12/06 06:23:24;;;;;;;91.65;37.35;;;2.90;99.90;;;;;;5070410;28;20068;-38
2021/12/06 06:25:51;;;;;;;94.05;36.67;;;2.90;99.90;;;;;;5070647;28;20041;-37
2021/12/06 06:28:19;;;;;;;87.93;36.80;;;2.90;99.90;;;;;;5047627;28;20519;-37
2021/12/06 06:30:46;;;;;;;85.35;35.35;;;2.90;99.90;;;;;;5063311;28;20484;-36
2021/12/06 06:33:13;;;;;;;90.18;36.42;;;2.90;99.90;;;;;;5052100;28;20063;-37
2021/12/06 06:35:40;;;;;;;87.72;36.30;;;2.90;99.90;;;;;;5069806;28;20123;-38
2021/12/06 06:38:08;;;;;;;83.32;35.08;;;2.90;99.90;;;;;;5052523;28;20546;-37
2021/12/06 06:40:35;;;;;;;92.40;37.33;;;2.90;99.90;;;;;;5069427;28;20515;-37
2021/12/06 06:43:02;;;;;;;91.35;36.13;;;2.90;99.90;;;;;;5052824;28;20091;-38
2021/12/06 06:45:29;;;;;;;97.43;37.83;;;2.90;99.90;;;;;;5053071;28;20403;-39
2021/12/06 06:47:56;;;;;;;98.97;38.90;;;2.90;99.90;;;;;;5067077;28;20098;-37
2021/12/06 06:50:24;;;;;;;84.78;35.00;;;2.90;99.90;;;;;;5070889;28;20052;-37
2021/12/06 06:52:53;;;;;;;104.60;38.50;;;2.90;99.90;;;;;;5052979;28;20048;-36
2021/12/06 06:55:21;;;;;;;103.57;38.45;;;2.90;99.90;;;;;;5071117;28;20048;-38
2021/12/06 06:57:50;;;;;;;103.70;39.22;;;2.90;99.90;;;;;;5070154;28;20076;-37
2021/12/06 07:00:19;;;;;;;95.95;38.15;;;2.90;99.90;;;;;;5052793;28;20381;-37
2021/12/06 07:02:46;;;;;;;108.10;39.10;;;2.90;99.90;;;;;;5052311;28;20075;-41
2021/12/06 07:05:13;;;;;;;100.55;38.17;;;2.90;99.90;;;;;;5069585;28;20487;-37
2021/12/06 07:07:40;;;;;;;103.72;39.63;;;2.90;99.90;;;;;;5070441;28;20059;-37
2021/12/06 07:10:08;;;;;;;102.60;39.70;;;2.90;99.90;;;;;;5071183;28;20066;-38
2021/12/06 07:12:43;;;;;;;94.28;39.50;;;2.90;99.90;;;;;;5069283;28;20099;-37
2021/12/06 07:15:12;;;;;;;101.22;38.55;;;2.90;99.90;;;;;;5070489;28;20127;-39
2021/12/06 07:17:39;;;;;;;102.18;38.70;;;2.90;99.90;;;;;;5074990;28;20127;-36
2021/12/06 07:20:07;;;;;;;99.57;37.20;;;2.80;99.90;;;;;;5056455;28;20445;-38
2021/12/06 07:22:34;;;;;;;138.15;63.47;;;2.80;99.90;;;;;;5052963;28;20500;-36
2021/12/06 07:25:01;;;;;;;96.80;38.85;;;2.80;99.90;;;;;;5075229;28;20067;-36
2021/12/06 07:27:28;;;;;;;89.97;36.10;;;2.80;99.90;;;;;;5052377;28;21500;-42
2021/12/06 07:29:56;;;;;;;92.68;36.78;;;2.80;99.90;;;;;;5065607;28;20066;-37
2021/12/06 07:32:23;;;;;;;89.53;36.33;;;2.80;99.90;;;;;;5071745;28;20119;-39
2021/12/06 07:34:51;;;;;;;85.30;35.92;;;2.80;99.90;;;;;;5055626;28;20128;-39
2021/12/06 07:37:18;;;;;;;81.40;34.67;;;2.80;99.90;;;;;;5071437;28;20052;-37
2021/12/06 07:39:45;;;;;;;86.70;34.95;;;2.90;99.90;;;;;;5050221;28;20128;-36
2021/12/06 07:42:12;;;;;;;80.15;34.60;;;2.90;99.90;;;;;;5070378;28;20076;-40
2021/12/06 07:44:39;;;;;;;81.88;34.30;;;2.80;99.90;;;;;;5073011;28;20390;-36
2021/12/06 07:47:08;;;;;;;86.32;35.10;;;2.90;99.90;;;;;;5041494;28;20803;-38
2021/12/06 07:49:37;;;;;;;78.63;32.15;;;2.80;99.90;;;;;;5045793;28;20088;-36
2021/12/06 07:52:04;;;;;;;81.70;33.20;;;2.80;99.90;;;;;;5050974;28;20511;-37
2021/12/06 07:54:31;;;;;;;77.22;32.20;;;2.70;99.90;;;;;;5043953;28;20052;-40
2021/12/06 07:56:58;;;;;;;76.68;33.50;;;2.70;99.90;;;;;;5057188;28;20087;-42
2021/12/06 07:59:25;;;;;;;81.38;32.15;;;2.70;99.90;;;;;;5062394;28;20052;-39
2021/12/06 08:01:52;;;;;;;82.35;33.05;;;2.70;99.90;;;;;;5052308;28;20131;-39
2021/12/06 08:04:20;;;;;;;85.38;33.70;;;2.60;99.90;;;;;;5045304;28;20052;-39
2021/12/06 08:06:48;;;;;;;84.50;34.38;;;2.60;99.90;;;;;;5052764;28;20048;-36
2021/12/06 08:09:15;;;;;;;91.85;35.03;;;2.70;99.90;;;;;;5055110;28;20091;-36
2021/12/06 08:11:42;;;;;;;82.20;34.28;;;2.70;99.90;;;;;;5054302;28;20567;-37
2021/12/06 08:14:09;;;;;;;86.90;34.38;;;2.70;99.90;;;;;;5053573;28;20166;-43
2021/12/06 08:16:39;;;;;;;83.68;32.28;;;2.70;99.90;;;;;;5054549;28;20190;-36
2021/12/06 08:19:06;;;;;;;75.20;31.05;;;2.70;99.90;;;;;;5055158;28;20396;-37
2021/12/06 08:21:34;;;;;;;73.43;32.00;;;2.70;99.90;;;;;;5054594;28;20130;-38
2021/12/06 08:24:02;;;;;;;70.57;31.15;;;2.70;99.90;;;;;;5051569;28;20082;-37
2021/12/06 08:26:31;;;;;;;70.93;30.73;;;2.70;99.90;;;;;;5057911;28;20512;-38
2021/12/06 08:28:58;;;;;;;83.57;32.17;;;2.70;99.90;;;;;;5052724;28;20056;-39
2021/12/06 08:31:27;;;;;;;68.97;29.88;;;2.60;99.90;;;;;;5056136;28;20060;-37
2021/12/06 08:33:54;;;;;;;83.57;33.35;;;2.60;99.90;;;;;;5043817;28;20055;-38
2021/12/06 08:36:25;;;;;;;75.65;32.45;;;2.60;99.90;;;;;;5056392;28;20052;-38
2021/12/06 08:38:53;;;;;;;74.85;31.45;;;2.50;99.90;;;;;;5035945;28;20057;-37
2021/12/06 08:41:21;;;;;;;71.57;30.60;;;2.50;99.90;;;;;;5057694;28;20063;-38
2021/12/06 08:43:49;;;;;;;72.68;31.90;;;2.60;99.90;;;;;;5065577;28;20412;-38
2021/12/06 08:46:17;;;;;;;69.78;29.17;;;2.50;99.90;;;;;;5040879;28;20699;-39
2021/12/06 08:48:45;;;;;;;70.88;30.20;;;2.50;99.90;;;;;;5057000;28;20059;-43
2021/12/06 08:51:13;;;;;;;69.68;29.67;;;2.50;99.90;;;;;;5057433;28;20394;-39
2021/12/06 08:53:41;;;;;;;73.80;30.85;;;2.50;99.90;;;;;;5063314;28;20053;-38
2021/12/06 08:56:09;;;;;;;85.57;34.47;;;2.50;99.90;;;;;;5024874;28;20444;-37
2021/12/06 08:58:36;;;;;;;83.45;35.55;;;2.50;99.90;;;;;;5070741;28;20057;-36
2021/12/06 09:01:04;;;;;;;89.82;37.33;;;2.60;99.90;;;;;;5053530;28;20488;-39
2021/12/06 09:03:31;;;;;;;83.80;34.65;;;2.60;99.90;;;;;;5070656;28;20056;-37
2021/12/06 09:05:58;;;;;;;107.63;44.55;;;2.60;99.90;;;;;;5070734;28;20047;-38
2021/12/06 09:08:25;;;;;;;113.32;46.92;;;2.60;99.90;;;;;;5070956;28;20091;-38
2021/12/06 09:10:53;;;;;;;117.18;48.38;;;2.60;99.90;;;;;;5053654;28;20488;-37
2021/12/06 09:13:24;;;;;;;118.80;49.60;;;2.60;99.90;;;;;;5050290;28;20150;-36
2021/12/06 09:15:51;;;;;;;121.53;50.27;;;2.60;99.90;;;;;;5053592;28;20110;-38
2021/12/06 09:18:19;;;;;;;123.75;48.53;;;2.60;99.90;;;;;;5069658;28;20083;-37
2021/12/06 09:20:46;;;;;;;119.20;49.00;;;2.60;99.90;;;;;;5071883;28;20052;-38
2021/12/06 09:23:14;;;;;;;118.03;49.65;;;2.60;99.90;;;;;;5063454;28;20044;-38
2021/12/06 09:25:42;;;;;;;114.15;47.08;;;2.60;99.90;;;;;;5067464;28;20135;-38
2021/12/06 09:28:09;;;;;;;99.55;42.08;;;2.60;99.90;;;;;;5070995;28;20134;-37
2021/12/06 09:30:38;;;;;;;95.95;40.58;;;2.60;99.90;;;;;;5053197;28;20048;-37
2021/12/06 09:33:06;;;;;;;98.30;39.90;;;2.60;99.90;;;;;;5068271;28;20048;-37
2021/12/06 09:35:35;;;;;;;94.28;38.53;;;2.70;99.90;;;;;;5069699;28;20076;-37
2021/12/06 09:38:02;;;;;;;77.38;34.60;;;2.70;99.90;;;;;;5072077;28;20044;-37
2021/12/06 09:40:30;;;;;;;76.55;33.10;;;2.70;99.90;;;;;;5051509;28;20134;-38
2021/12/06 09:42:57;;;;;;;75.53;32.70;;;2.70;99.90;;;;;;5070965;28;20131;-37
2021/12/06 09:45:25;;;;;;;74.53;31.83;;;2.80;99.90;;;;;;5053336;28;20488;-40
2021/12/06 09:47:54;;;;;;;67.70;30.38;;;2.70;99.90;;;;;;5069924;28;20052;-38
2021/12/06 09:50:24;;;;;;;71.68;30.85;;;2.80;99.90;;;;;;5044363;28;20057;-38
2021/12/06 09:52:51;;;;;;;59.10;28.60;;;2.80;99.90;;;;;;5059267;28;20123;-36
2021/12/06 09:55:18;;;;;;;70.10;29.27;;;2.80;99.90;;;;;;5064255;28;20086;-37
2021/12/06 09:57:45;;;;;;;62.35;27.45;;;2.80;99.90;;;;;;5047930;28;20062;-39
2021/12/06 10:00:14;;;;;;;73.18;31.08;;;2.80;99.90;;;;;;5047028;28;20131;-41
2021/12/06 10:02:42;;;;;;;61.35;27.45;;;2.90;99.90;;;;;;5066521;28;20361;-37
2021/12/06 10:05:10;;;;;;;67.07;32.28;;;2.90;99.90;;;;;;5070971;28;20048;-36
2021/12/06 10:07:38;;;;;;;55.90;26.42;;;2.90;99.90;;;;;;5069927;28;20086;-38
2021/12/06 10:10:06;;;;;;;49.25;23.08;;;2.90;99.90;;;;;;5047968;28;20099;-36
2021/12/06 10:12:33;;;;;;;56.08;25.30;;;3.00;99.90;;;;;;5068180;28;20080;-37
2021/12/06 10:15:02;;;;;;;59.00;28.23;;;3.00;99.90;;;;;;5051939;28;20048;-36
2021/12/06 10:17:29;;;;;;;54.63;24.77;;;3.00;99.90;;;;;;5069755;28;20136;-36
2021/12/06 10:19:57;;;;;;;55.80;25.08;;;3.00;99.90;;;;;;5069310;28;20052;-41
2021/12/06 10:22:27;;;;;;;55.88;25.55;;;3.00;99.90;;;;;;5069848;28;20127;-36
2021/12/06 10:24:55;;;;;;;62.03;26.40;;;3.00;99.90;;;;;;5070890;28;20059;-38
2021/12/06 10:27:22;;;;;;;54.10;26.02;;;2.90;99.90;;;;;;5067393;28;20162;-36
2021/12/06 10:29:50;;;;;;;56.03;27.25;;;2.90;99.90;;;;;;5067508;28;20472;-36
2021/12/06 10:32:18;;;;;;;52.92;25.98;;;3.00;99.90;;;;;;5045650;28;20052;-37
2021/12/06 10:34:47;;;;;;;52.10;24.42;;;3.00;99.90;;;;;;5049784;28;20056;-37
2021/12/06 10:37:30;;;;;;;53.42;26.00;;;2.90;99.90;;;;;;5044190;28;20139;-36
2021/12/06 10:39:57;;;;;;;54.03;26.08;;;2.90;99.90;;;;;;5068281;28;20141;-37
2021/12/06 10:42:29;;;;;;;50.60;24.45;;;2.90;99.90;;;;;;5070031;28;20492;-40
2021/12/06 10:44:56;;;;;;;52.60;26.67;;;2.90;99.90;;;;;;5067467;28;20130;-36
2021/12/06 10:47:23;;;;;;;45.95;24.40;;;2.90;99.90;;;;;;5047485;28;20568;-39
2021/12/06 10:49:50;;;;;;;49.70;23.45;;;2.90;99.90;;;;;;5051358;28;20084;-44
2021/12/06 10:52:25;;;;;;;47.15;22.98;;;3.00;99.90;;;;;;5052696;28;20156;-39
2021/12/06 10:54:54;;;;;;;45.38;21.27;;;2.90;99.90;;;;;;5070251;28;20106;-36
2021/12/06 10:57:21;;;;;;;45.38;22.88;;;2.90;99.90;;;;;;5051112;28;20067;-36
2021/12/06 10:59:48;;;;;;;46.45;22.50;;;3.00;99.90;;;;;;5053332;28;20063;-37
2021/12/06 11:02:15;;;;;;;43.85;22.83;;;3.00;99.90;;;;;;5051513;28;20080;-36
2021/12/06 11:04:42;;;;;;;50.08;23.48;;;3.00;99.90;;;;;;5051545;28;20463;-40
2021/12/06 11:07:10;;;;;;;42.70;20.38;;;3.00;99.90;;;;;;5043851;28;20455;-36
2021/12/06 11:09:38;;;;;;;49.13;22.80;;;3.00;99.90;;;;;;5067233;28;20487;-36
2021/12/06 11:12:08;;;;;;;54.97;25.35;;;3.00;99.90;;;;;;5069148;28;20051;-38
2021/12/06 11:14:36;;;;;;;50.22;23.80;;;3.00;99.90;;;;;;5051056;28;20457;-36
2021/12/06 11:17:04;;;;;;;53.60;23.40;;;3.10;99.90;;;;;;5067678;28;20106;-37
2021/12/06 11:19:31;;;;;;;52.63;24.15;;;3.10;99.90;;;;;;5070276;28;20052;-36
2021/12/06 11:21:59;;;;;;;49.42;24.55;;;3.10;99.90;;;;;;5051917;28;20140;-36
2021/12/06 11:24:27;;;;;;;56.40;24.25;;;3.10;99.90;;;;;;5051809;28;20044;-36
2021/12/06 11:26:57;;;;;;;65.80;24.27;;;3.20;99.90;;;;;;5066416;28;20102;-37
2021/12/06 11:29:29;;;;;;;59.38;25.80;;;3.20;99.90;;;;;;5068281;28;20087;-36
2021/12/06 11:31:59;;;;;;;54.92;24.25;;;3.20;99.90;;;;;;5050857;28;20118;-36
2021/12/06 11:34:27;;;;;;;62.22;26.30;;;3.20;99.90;;;;;;5069872;28;20141;-37
2021/12/06 11:36:54;;;;;;;61.13;25.75;;;3.20;99.90;;;;;;5069950;28;20049;-39
2021/12/06 11:39:22;;;;;;;54.80;25.42;;;3.30;99.90;;;;;;5051076;28;20442;-36
2021/12/06 11:41:51;;;;;;;52.42;25.92;;;3.30;99.90;;;;;;5069606;28;20036;-37
2021/12/06 11:44:21;;;;;;;53.33;25.30;;;3.30;99.90;;;;;;5068997;28;20052;-39
2021/12/06 11:46:57;;;;;;;53.42;23.60;;;3.40;99.90;;;;;;5051913;28;20118;-40
2021/12/06 11:49:28;;;;;;;52.90;24.80;;;3.40;99.90;;;;;;5068691;28;20072;-37
2021/12/06 11:51:55;;;;;;;49.35;23.63;;;3.40;99.90;;;;;;5067583;28;20471;-36
2021/12/06 11:54:22;;;;;;;48.38;22.50;;;3.40;99.90;;;;;;5050625;28;20131;-36
2021/12/06 11:56:51;;;;;;;51.60;22.20;;;3.40;99.90;;;;;;5070441;28;20110;-37
2021/12/06 11:59:18;;;;;;;46.22;21.33;;;3.40;99.90;;;;;;5050926;28;20079;-37
2021/12/06 12:01:46;;;;;;;52.85;22.65;;;3.40;99.90;;;;;;5051184;28;20049;-36
2021/12/06 12:04:16;;;;;;;56.38;24.45;;;3.40;99.90;;;;;;5072278;28;20447;-38
2021/12/06 12:06:43;;;;;;;51.00;24.55;;;3.40;99.90;;;;;;5055272;28;20497;-37
2021/12/06 12:09:12;;;;;;;58.78;25.27;;;3.30;99.90;;;;;;5072255;28;20472;-37
2021/12/06 12:12:10;;;;;;;58.97;26.77;;;3.40;99.90;;;;;;5071630;28;20063;-36
2021/12/06 12:14:39;;;;;;;64.13;25.05;;;3.40;99.90;;;;;;5053145;28;20432;-41
2021/12/06 12:17:08;;;;;;;59.25;25.80;;;3.40;99.90;;;;;;5072819;28;20052;-41
2021/12/06 12:19:37;;;;;;;59.47;26.98;;;3.40;99.90;;;;;;5053950;28;20056;-40
2021/12/06 12:22:04;;;;;;;61.22;26.80;;;3.40;99.90;;;;;;5073201;28;20055;-36
2021/12/06 12:24:32;;;;;;;67.70;28.85;;;3.40;99.90;;;;;;5053238;28;20079;-39
2021/12/06 12:27:06;;;;;;;62.85;27.58;;;3.40;99.90;;;;;;5050958;28;20102;-36
2021/12/06 12:29:33;;;;;;;55.28;26.98;;;3.40;99.90;;;;;;5054619;28;20053;-36
2021/12/06 12:32:01;;;;;;;70.00;30.40;;;3.50;99.90;;;;;;5055449;28;20063;-36
2021/12/06 12:34:30;;;;;;;62.67;28.60;;;3.50;99.90;;;;;;5073060;28;20105;-36
2021/12/06 12:36:58;;;;;;;60.67;26.02;;;3.50;99.90;;;;;;5054037;28;20131;-37
2021/12/06 12:39:25;;;;;;;63.72;26.98;;;3.50;99.90;;;;;;5072065;28;20546;-39
2021/12/06 12:41:54;;;;;;;67.43;27.95;;;3.40;99.90;;;;;;5068440;28;20146;-37
2021/12/06 12:44:21;;;;;;;77.60;32.05;;;3.40;99.90;;;;;;5054169;28;20048;-37
2021/12/06 12:46:49;;;;;;;74.68;29.35;;;3.40;99.90;;;;;;5053111;28;20060;-36
2021/12/06 12:49:17;;;;;;;86.20;33.72;;;3.40;99.90;;;;;;5072422;28;20040;-37